sensor_id;sensor_type;location;lat;lon;timestamp;P1;durP1;ratioP1;P2;durP2;ratioP2
25467;SDS011;13384;24.794;110.498;2023-03-01T00:00:22;61.63;;;35.88;;
25467;SDS011;13384;24.794;110.498;2023-03-01T00:02:57;63.10;;;36.80;;
25467;SDS011;13384;24.794;110.498;2023-03-01T00:05:29;65.22;;;38.00;;
25467;SDS011;13384;24.794;110.498;2023-03-01T00:08:00;65.53;;;36.88;;
25467;SDS011;13384;24.794;110.498;2023-03-01T00:10:31;66.25;;;37.85;;
25467;SDS011;13384;24.794;110.498;2023-03-01T00:13:22;65.10;;;36.40;;
25467;SDS011;13384;24.794;110.498;2023-03-01T00:15:53;63.55;;;36.28;;
25467;SDS011;13384;24.794;110.498;2023-03-01T00:18:24;62.63;;;37.22;;
25467;SDS011;13384;24.794;110.498;2023-03-01T00:20:56;64.28;;;37.92;;
25467;SDS011;13384;24.794;110.498;2023-03-01T00:23:27;66.22;;;39.00;;
25467;SDS011;13384;24.794;110.498;2023-03-01T00:25:59;65.00;;;37.88;;
25467;SDS011;13384;24.794;110.498;2023-03-01T00:28:31;66.82;;;38.90;;
25467;SDS011;13384;24.794;110.498;2023-03-01T00:31:03;67.13;;;38.92;;
25467;SDS011;13384;24.794;110.498;2023-03-01T00:33:39;70.93;;;39.65;;
25467;SDS011;13384;24.794;110.498;2023-03-01T00:36:14;67.75;;;37.15;;
25467;SDS011;13384;24.794;110.498;2023-03-01T00:38:45;67.60;;;38.67;;
25467;SDS011;13384;24.794;110.498;2023-03-01T00:41:17;66.20;;;39.58;;
25467;SDS011;13384;24.794;110.498;2023-03-01T00:43:49;67.85;;;38.33;;
25467;SDS011;13384;24.794;110.498;2023-03-01T00:46:23;77.90;;;39.30;;
25467;SDS011;13384;24.794;110.498;2023-03-01T00:48:56;72.18;;;41.08;;
25467;SDS011;13384;24.794;110.498;2023-03-01T00:51:28;74.82;;;41.63;;
25467;SDS011;13384;24.794;110.498;2023-03-01T00:54:19;69.85;;;40.92;;
25467;SDS011;13384;24.794;110.498;2023-03-01T00:56:50;68.00;;;37.25;;
25467;SDS011;13384;24.794;110.498;2023-03-01T00:59:41;70.78;;;40.38;;
25467;SDS011;13384;24.794;110.498;2023-03-01T01:02:12;72.57;;;42.42;;
25467;SDS011;13384;24.794;110.498;2023-03-01T01:04:44;73.57;;;42.90;;
25467;SDS011;13384;24.794;110.498;2023-03-01T01:07:16;73.47;;;41.95;;
25467;SDS011;13384;24.794;110.498;2023-03-01T01:09:49;72.45;;;41.53;;
25467;SDS011;13384;24.794;110.498;2023-03-01T01:12:21;74.70;;;42.22;;
25467;SDS011;13384;24.794;110.498;2023-03-01T01:14:52;79.10;;;41.60;;
25467;SDS011;13384;24.794;110.498;2023-03-01T01:17:24;78.78;;;41.97;;
25467;SDS011;13384;24.794;110.498;2023-03-01T01:20:17;75.55;;;43.45;;
25467;SDS011;13384;24.794;110.498;2023-03-01T01:22:50;76.72;;;41.95;;
25467;SDS011;13384;24.794;110.498;2023-03-01T01:25:22;74.45;;;42.13;;
25467;SDS011;13384;24.794;110.498;2023-03-01T01:27:54;75.32;;;41.80;;
25467;SDS011;13384;24.794;110.498;2023-03-01T01:30:26;77.55;;;43.50;;
25467;SDS011;13384;24.794;110.498;2023-03-01T01:33:00;73.40;;;41.78;;
25467;SDS011;13384;24.794;110.498;2023-03-01T01:35:31;71.47;;;40.85;;
25467;SDS011;13384;24.794;110.498;2023-03-01T01:38:02;67.55;;;40.97;;
25467;SDS011;13384;24.794;110.498;2023-03-01T01:40:33;72.38;;;39.58;;
25467;SDS011;13384;24.794;110.498;2023-03-01T01:43:04;72.70;;;40.75;;
25467;SDS011;13384;24.794;110.498;2023-03-01T01:45:40;75.25;;;42.00;;
25467;SDS011;13384;24.794;110.498;2023-03-01T01:48:12;77.90;;;43.45;;
25467;SDS011;13384;24.794;110.498;2023-03-01T01:50:50;70.97;;;40.53;;
25467;SDS011;13384;24.794;110.498;2023-03-01T01:53:29;76.75;;;43.05;;
25467;SDS011;13384;24.794;110.498;2023-03-01T01:56:03;78.85;;;43.92;;
25467;SDS011;13384;24.794;110.498;2023-03-01T01:58:40;80.05;;;46.88;;
25467;SDS011;13384;24.794;110.498;2023-03-01T02:01:13;81.78;;;45.80;;
25467;SDS011;13384;24.794;110.498;2023-03-01T02:03:44;86.45;;;47.75;;
25467;SDS011;13384;24.794;110.498;2023-03-01T02:06:27;94.35;;;51.00;;
25467;SDS011;13384;24.794;110.498;2023-03-01T02:09:04;87.85;;;47.78;;
25467;SDS011;13384;24.794;110.498;2023-03-01T02:11:41;91.25;;;48.22;;
25467;SDS011;13384;24.794;110.498;2023-03-01T02:14:14;92.68;;;50.97;;
25467;SDS011;13384;24.794;110.498;2023-03-01T02:16:46;92.65;;;50.22;;
25467;SDS011;13384;24.794;110.498;2023-03-01T02:19:40;93.90;;;49.22;;
25467;SDS011;13384;24.794;110.498;2023-03-01T02:22:31;94.38;;;50.72;;
25467;SDS011;13384;24.794;110.498;2023-03-01T02:30:51;97.55;;;53.60;;
25467;SDS011;13384;24.794;110.498;2023-03-01T02:33:41;96.03;;;54.40;;
25467;SDS011;13384;24.794;110.498;2023-03-01T02:36:26;104.55;;;56.47;;
25467;SDS011;13384;24.794;110.498;2023-03-01T02:39:04;105.50;;;55.80;;
25467;SDS011;13384;24.794;110.498;2023-03-01T02:41:46;99.97;;;55.60;;
25467;SDS011;13384;24.794;110.498;2023-03-01T02:44:24;106.13;;;58.05;;
25467;SDS011;13384;24.794;110.498;2023-03-01T02:46:56;106.35;;;57.08;;
25467;SDS011;13384;24.794;110.498;2023-03-01T02:49:33;105.15;;;57.78;;
25467;SDS011;13384;24.794;110.498;2023-03-01T02:57:21;110.90;;;59.35;;
25467;SDS011;13384;24.794;110.498;2023-03-01T02:59:56;102.15;;;52.92;;
25467;SDS011;13384;24.794;110.498;2023-03-01T03:02:37;76.30;;;43.33;;
25467;SDS011;13384;24.794;110.498;2023-03-01T03:05:18;106.05;;;61.97;;
25467;SDS011;13384;24.794;110.498;2023-03-01T03:07:54;108.78;;;59.78;;
25467;SDS011;13384;24.794;110.498;2023-03-01T03:10:28;108.13;;;59.33;;
25467;SDS011;13384;24.794;110.498;2023-03-01T03:13:04;97.82;;;54.85;;
25467;SDS011;13384;24.794;110.498;2023-03-01T03:15:38;103.45;;;55.42;;
25467;SDS011;13384;24.794;110.498;2023-03-01T03:18:12;103.88;;;56.15;;
25467;SDS011;13384;24.794;110.498;2023-03-01T03:20:47;83.35;;;45.30;;
25467;SDS011;13384;24.794;110.498;2023-03-01T03:23:22;100.28;;;53.35;;
25467;SDS011;13384;24.794;110.498;2023-03-01T03:25:53;100.25;;;53.42;;
25467;SDS011;13384;24.794;110.498;2023-03-01T03:28:26;107.35;;;54.97;;
25467;SDS011;13384;24.794;110.498;2023-03-01T03:30:57;104.95;;;55.90;;
25467;SDS011;13384;24.794;110.498;2023-03-01T03:33:32;107.70;;;59.67;;
25467;SDS011;13384;24.794;110.498;2023-03-01T03:36:04;103.63;;;54.95;;
25467;SDS011;13384;24.794;110.498;2023-03-01T03:38:35;109.85;;;61.70;;
25467;SDS011;13384;24.794;110.498;2023-03-01T03:41:07;59.72;;;34.10;;
25467;SDS011;13384;24.794;110.498;2023-03-01T03:43:39;105.32;;;55.30;;
25467;SDS011;13384;24.794;110.498;2023-03-01T03:46:15;90.95;;;51.15;;
25467;SDS011;13384;24.794;110.498;2023-03-01T03:48:47;136.23;;;80.88;;
25467;SDS011;13384;24.794;110.498;2023-03-01T03:51:19;93.65;;;50.97;;
25467;SDS011;13384;24.794;110.498;2023-03-01T03:53:52;162.93;;;97.65;;
25467;SDS011;13384;24.794;110.498;2023-03-01T03:56:23;121.47;;;69.75;;
25467;SDS011;13384;24.794;110.498;2023-03-01T03:58:56;91.53;;;49.17;;
25467;SDS011;13384;24.794;110.498;2023-03-01T04:01:27;103.40;;;56.40;;
25467;SDS011;13384;24.794;110.498;2023-03-01T04:03:58;66.50;;;40.13;;
25467;SDS011;13384;24.794;110.498;2023-03-01T04:06:34;87.82;;;47.53;;
25467;SDS011;13384;24.794;110.498;2023-03-01T04:09:05;95.80;;;53.78;;
25467;SDS011;13384;24.794;110.498;2023-03-01T04:11:47;92.28;;;48.80;;
25467;SDS011;13384;24.794;110.498;2023-03-01T04:14:18;81.72;;;46.75;;
25467;SDS011;13384;24.794;110.498;2023-03-01T04:16:49;82.32;;;46.15;;
25467;SDS011;13384;24.794;110.498;2023-03-01T04:19:20;120.32;;;69.00;;
25467;SDS011;13384;24.794;110.498;2023-03-01T04:21:52;102.93;;;59.10;;
25467;SDS011;13384;24.794;110.498;2023-03-01T04:24:24;86.20;;;50.85;;
25467;SDS011;13384;24.794;110.498;2023-03-01T04:26:55;92.90;;;49.92;;
25467;SDS011;13384;24.794;110.498;2023-03-01T04:29:29;86.43;;;48.13;;
25467;SDS011;13384;24.794;110.498;2023-03-01T04:31:59;87.88;;;47.92;;
25467;SDS011;13384;24.794;110.498;2023-03-01T04:34:32;82.05;;;50.00;;
25467;SDS011;13384;24.794;110.498;2023-03-01T04:37:04;80.95;;;46.05;;
25467;SDS011;13384;24.794;110.498;2023-03-01T04:39:35;82.60;;;45.28;;
25467;SDS011;13384;24.794;110.498;2023-03-01T04:42:15;71.43;;;37.55;;
25467;SDS011;13384;24.794;110.498;2023-03-01T04:44:51;70.30;;;39.95;;
25467;SDS011;13384;24.794;110.498;2023-03-01T04:47:23;86.15;;;49.50;;
25467;SDS011;13384;24.794;110.498;2023-03-01T04:49:54;88.57;;;49.53;;
25467;SDS011;13384;24.794;110.498;2023-03-01T04:52:26;88.50;;;50.10;;
25467;SDS011;13384;24.794;110.498;2023-03-01T04:54:58;87.90;;;49.03;;
25467;SDS011;13384;24.794;110.498;2023-03-01T04:57:29;91.10;;;49.28;;
25467;SDS011;13384;24.794;110.498;2023-03-01T05:00:06;102.53;;;55.28;;
25467;SDS011;13384;24.794;110.498;2023-03-01T05:05:34;83.20;;;47.28;;
25467;SDS011;13384;24.794;110.498;2023-03-01T05:08:26;79.25;;;43.00;;
25467;SDS011;13384;24.794;110.498;2023-03-01T05:10:58;80.15;;;45.10;;
25467;SDS011;13384;24.794;110.498;2023-03-01T05:13:28;76.00;;;45.28;;
25467;SDS011;13384;24.794;110.498;2023-03-01T05:16:00;88.05;;;49.25;;
25467;SDS011;13384;24.794;110.498;2023-03-01T05:18:33;86.20;;;46.30;;
25467;SDS011;13384;24.794;110.498;2023-03-01T05:21:05;72.72;;;41.08;;
25467;SDS011;13384;24.794;110.498;2023-03-01T05:23:39;79.68;;;43.78;;
25467;SDS011;13384;24.794;110.498;2023-03-01T05:26:11;84.80;;;44.00;;
25467;SDS011;13384;24.794;110.498;2023-03-01T05:31:28;80.32;;;44.70;;
25467;SDS011;13384;24.794;110.498;2023-03-01T05:34:00;79.25;;;41.65;;
25467;SDS011;13384;24.794;110.498;2023-03-01T05:36:32;76.88;;;42.35;;
25467;SDS011;13384;24.794;110.498;2023-03-01T05:39:03;78.28;;;43.28;;
25467;SDS011;13384;24.794;110.498;2023-03-01T05:41:35;73.28;;;42.53;;
25467;SDS011;13384;24.794;110.498;2023-03-01T05:44:06;77.38;;;44.22;;
25467;SDS011;13384;24.794;110.498;2023-03-01T05:46:37;67.60;;;39.20;;
25467;SDS011;13384;24.794;110.498;2023-03-01T05:49:08;65.25;;;35.45;;
25467;SDS011;13384;24.794;110.498;2023-03-01T05:51:40;72.03;;;38.67;;
25467;SDS011;13384;24.794;110.498;2023-03-01T05:54:12;65.65;;;39.00;;
25467;SDS011;13384;24.794;110.498;2023-03-01T05:56:44;66.63;;;36.42;;
25467;SDS011;13384;24.794;110.498;2023-03-01T05:59:14;68.13;;;37.13;;
25467;SDS011;13384;24.794;110.498;2023-03-01T06:01:47;59.70;;;33.28;;
25467;SDS011;13384;24.794;110.498;2023-03-01T06:04:39;67.85;;;37.78;;
25467;SDS011;13384;24.794;110.498;2023-03-01T06:07:11;65.47;;;38.47;;
25467;SDS011;13384;24.794;110.498;2023-03-01T06:09:42;66.05;;;39.22;;
25467;SDS011;13384;24.794;110.498;2023-03-01T06:12:14;66.00;;;34.90;;
25467;SDS011;13384;24.794;110.498;2023-03-01T06:14:46;67.05;;;38.40;;
25467;SDS011;13384;24.794;110.498;2023-03-01T06:17:18;69.28;;;37.47;;
25467;SDS011;13384;24.794;110.498;2023-03-01T06:19:52;66.85;;;35.33;;
25467;SDS011;13384;24.794;110.498;2023-03-01T06:22:23;66.13;;;36.83;;
25467;SDS011;13384;24.794;110.498;2023-03-01T06:24:55;59.83;;;35.58;;
25467;SDS011;13384;24.794;110.498;2023-03-01T06:27:27;66.13;;;36.20;;
25467;SDS011;13384;24.794;110.498;2023-03-01T06:29:58;64.50;;;37.85;;
25467;SDS011;13384;24.794;110.498;2023-03-01T06:32:36;67.32;;;36.72;;
25467;SDS011;13384;24.794;110.498;2023-03-01T06:35:12;73.35;;;38.42;;
25467;SDS011;13384;24.794;110.498;2023-03-01T06:37:47;62.55;;;35.70;;
25467;SDS011;13384;24.794;110.498;2023-03-01T06:40:18;64.18;;;36.88;;
25467;SDS011;13384;24.794;110.498;2023-03-01T06:42:50;60.88;;;36.38;;
25467;SDS011;13384;24.794;110.498;2023-03-01T06:45:22;61.97;;;32.58;;
25467;SDS011;13384;24.794;110.498;2023-03-01T06:48:00;63.53;;;35.13;;
25467;SDS011;13384;24.794;110.498;2023-03-01T06:50:36;62.35;;;34.22;;
25467;SDS011;13384;24.794;110.498;2023-03-01T06:53:11;57.40;;;36.95;;
25467;SDS011;13384;24.794;110.498;2023-03-01T06:55:57;60.08;;;36.75;;
25467;SDS011;13384;24.794;110.498;2023-03-01T06:58:32;66.07;;;37.30;;
25467;SDS011;13384;24.794;110.498;2023-03-01T07:01:06;57.63;;;34.55;;
25467;SDS011;13384;24.794;110.498;2023-03-01T07:03:38;58.20;;;34.22;;
25467;SDS011;13384;24.794;110.498;2023-03-01T07:06:10;64.97;;;38.65;;
25467;SDS011;13384;24.794;110.498;2023-03-01T07:11:14;67.65;;;34.05;;
25467;SDS011;13384;24.794;110.498;2023-03-01T07:13:46;61.50;;;35.05;;
25467;SDS011;13384;24.794;110.498;2023-03-01T07:16:17;61.50;;;35.55;;
25467;SDS011;13384;24.794;110.498;2023-03-01T07:18:50;61.72;;;35.88;;
25467;SDS011;13384;24.794;110.498;2023-03-01T07:21:21;58.65;;;36.53;;
25467;SDS011;13384;24.794;110.498;2023-03-01T07:23:52;59.20;;;34.42;;
25467;SDS011;13384;24.794;110.498;2023-03-01T07:26:23;58.13;;;32.42;;
25467;SDS011;13384;24.794;110.498;2023-03-01T07:28:54;62.08;;;34.05;;
25467;SDS011;13384;24.794;110.498;2023-03-01T07:31:26;67.95;;;34.38;;
25467;SDS011;13384;24.794;110.498;2023-03-01T07:33:57;56.53;;;32.88;;
25467;SDS011;13384;24.794;110.498;2023-03-01T07:36:44;59.03;;;34.17;;
25467;SDS011;13384;24.794;110.498;2023-03-01T07:39:18;59.88;;;34.47;;
25467;SDS011;13384;24.794;110.498;2023-03-01T07:41:49;55.28;;;32.83;;
25467;SDS011;13384;24.794;110.498;2023-03-01T07:44:22;58.67;;;35.15;;
25467;SDS011;13384;24.794;110.498;2023-03-01T07:46:53;59.00;;;34.63;;
25467;SDS011;13384;24.794;110.498;2023-03-01T07:49:25;60.70;;;35.20;;
25467;SDS011;13384;24.794;110.498;2023-03-01T07:51:57;59.80;;;33.00;;
25467;SDS011;13384;24.794;110.498;2023-03-01T07:54:29;58.28;;;33.33;;
25467;SDS011;13384;24.794;110.498;2023-03-01T07:57:00;54.65;;;33.00;;
25467;SDS011;13384;24.794;110.498;2023-03-01T07:59:31;56.22;;;34.17;;
25467;SDS011;13384;24.794;110.498;2023-03-01T08:02:03;59.38;;;33.20;;
25467;SDS011;13384;24.794;110.498;2023-03-01T08:04:34;56.65;;;33.13;;
25467;SDS011;13384;24.794;110.498;2023-03-01T08:07:05;58.78;;;32.30;;
25467;SDS011;13384;24.794;110.498;2023-03-01T08:09:37;53.58;;;33.75;;
25467;SDS011;13384;24.794;110.498;2023-03-01T08:12:08;59.03;;;32.65;;
25467;SDS011;13384;24.794;110.498;2023-03-01T08:14:39;57.75;;;34.83;;
25467;SDS011;13384;24.794;110.498;2023-03-01T08:17:30;57.42;;;34.65;;
25467;SDS011;13384;24.794;110.498;2023-03-01T08:20:01;59.90;;;31.80;;
25467;SDS011;13384;24.794;110.498;2023-03-01T08:22:35;66.40;;;36.55;;
25467;SDS011;13384;24.794;110.498;2023-03-01T08:25:07;57.53;;;33.85;;
25467;SDS011;13384;24.794;110.498;2023-03-01T08:27:38;56.97;;;33.28;;
25467;SDS011;13384;24.794;110.498;2023-03-01T08:30:09;56.08;;;31.48;;
25467;SDS011;13384;24.794;110.498;2023-03-01T10:30:39;59.10;;;35.33;;
25467;SDS011;13384;24.794;110.498;2023-03-01T10:33:17;63.70;;;35.13;;
25467;SDS011;13384;24.794;110.498;2023-03-01T10:35:53;64.60;;;35.22;;
25467;SDS011;13384;24.794;110.498;2023-03-01T10:38:24;61.97;;;34.50;;
25467;SDS011;13384;24.794;110.498;2023-03-01T10:41:13;61.92;;;34.33;;
25467;SDS011;13384;24.794;110.498;2023-03-01T10:43:48;62.38;;;35.22;;
25467;SDS011;13384;24.794;110.498;2023-03-01T10:46:24;61.15;;;34.00;;
25467;SDS011;13384;24.794;110.498;2023-03-01T10:51:42;64.75;;;35.05;;
25467;SDS011;13384;24.794;110.498;2023-03-01T10:54:21;59.58;;;33.45;;
25467;SDS011;13384;24.794;110.498;2023-03-01T10:56:54;61.67;;;34.28;;
25467;SDS011;13384;24.794;110.498;2023-03-01T10:59:34;57.60;;;33.15;;
25467;SDS011;13384;24.794;110.498;2023-03-01T11:07:31;57.13;;;32.85;;
25467;SDS011;13384;24.794;110.498;2023-03-01T11:10:19;59.67;;;33.85;;
25467;SDS011;13384;24.794;110.498;2023-03-01T11:13:08;58.28;;;34.58;;
25467;SDS011;13384;24.794;110.498;2023-03-01T11:15:59;54.58;;;32.20;;
25467;SDS011;13384;24.794;110.498;2023-03-01T11:18:33;58.35;;;34.38;;
25467;SDS011;13384;24.794;110.498;2023-03-01T11:21:15;58.30;;;33.15;;
25467;SDS011;13384;24.794;110.498;2023-03-01T11:24:10;65.20;;;37.10;;
25467;SDS011;13384;24.794;110.498;2023-03-01T11:26:46;81.15;;;44.17;;
25467;SDS011;13384;24.794;110.498;2023-03-01T11:32:16;60.97;;;35.30;;
25467;SDS011;13384;24.794;110.498;2023-03-01T11:34:57;60.90;;;33.65;;
25467;SDS011;13384;24.794;110.498;2023-03-01T11:40:57;62.60;;;35.17;;
25467;SDS011;13384;24.794;110.498;2023-03-01T11:52:16;55.97;;;31.92;;
25467;SDS011;13384;24.794;110.498;2023-03-01T12:06:02;56.10;;;32.20;;
25467;SDS011;13384;24.794;110.498;2023-03-01T12:14:47;47.88;;;28.60;;
25467;SDS011;13384;24.794;110.498;2023-03-01T12:17:36;64.55;;;37.15;;
25467;SDS011;13384;24.794;110.498;2023-03-01T12:20:15;70.85;;;40.22;;
25467;SDS011;13384;24.794;110.498;2023-03-01T12:23:02;66.80;;;37.42;;
25467;SDS011;13384;24.794;110.498;2023-03-01T12:26:13;60.30;;;33.55;;
25467;SDS011;13384;24.794;110.498;2023-03-01T12:29:26;59.00;;;33.72;;
25467;SDS011;13384;24.794;110.498;2023-03-01T12:49:38;60.30;;;36.00;;
25467;SDS011;13384;24.794;110.498;2023-03-01T12:52:58;58.83;;;33.58;;
25467;SDS011;13384;24.794;110.498;2023-03-01T12:55:37;54.83;;;32.35;;
25467;SDS011;13384;24.794;110.498;2023-03-01T12:58:21;57.95;;;33.15;;
25467;SDS011;13384;24.794;110.498;2023-03-01T13:01:22;75.20;;;43.60;;
25467;SDS011;13384;24.794;110.498;2023-03-01T13:10:10;60.58;;;33.40;;
25467;SDS011;13384;24.794;110.498;2023-03-01T13:15:48;55.30;;;32.97;;
25467;SDS011;13384;24.794;110.498;2023-03-01T13:20:56;56.95;;;33.78;;
25467;SDS011;13384;24.794;110.498;2023-03-01T13:33:56;53.25;;;32.10;;
25467;SDS011;13384;24.794;110.498;2023-03-01T13:39:27;53.05;;;32.65;;
25467;SDS011;13384;24.794;110.498;2023-03-01T13:42:00;54.47;;;30.83;;
25467;SDS011;13384;24.794;110.498;2023-03-01T13:44:33;56.60;;;33.22;;
25467;SDS011;13384;24.794;110.498;2023-03-01T13:49:59;58.92;;;34.03;;
25467;SDS011;13384;24.794;110.498;2023-03-01T13:58:28;62.00;;;34.45;;
25467;SDS011;13384;24.794;110.498;2023-03-01T14:01:02;69.78;;;36.80;;
25467;SDS011;13384;24.794;110.498;2023-03-01T14:03:40;56.05;;;32.75;;
25467;SDS011;13384;24.794;110.498;2023-03-01T14:06:13;57.20;;;32.70;;
25467;SDS011;13384;24.794;110.498;2023-03-01T14:08:49;55.50;;;31.17;;
25467;SDS011;13384;24.794;110.498;2023-03-01T14:21:07;52.25;;;31.20;;
25467;SDS011;13384;24.794;110.498;2023-03-01T14:23:38;58.47;;;34.33;;
25467;SDS011;13384;24.794;110.498;2023-03-01T14:26:13;55.63;;;33.20;;
25467;SDS011;13384;24.794;110.498;2023-03-01T14:28:49;57.80;;;33.33;;
25467;SDS011;13384;24.794;110.498;2023-03-01T14:34:23;56.00;;;32.50;;
25467;SDS011;13384;24.794;110.498;2023-03-01T14:36:56;56.33;;;33.42;;
25467;SDS011;13384;24.794;110.498;2023-03-01T14:39:39;62.58;;;35.10;;
25467;SDS011;13384;24.794;110.498;2023-03-01T14:42:13;61.17;;;34.15;;
25467;SDS011;13384;24.794;110.498;2023-03-01T14:44:46;64.95;;;37.72;;
25467;SDS011;13384;24.794;110.498;2023-03-01T14:47:25;56.20;;;34.42;;
25467;SDS011;13384;24.794;110.498;2023-03-01T14:50:23;58.38;;;34.03;;
25467;SDS011;13384;24.794;110.498;2023-03-01T14:53:01;61.97;;;36.78;;
25467;SDS011;13384;24.794;110.498;2023-03-01T14:55:38;59.85;;;36.17;;
25467;SDS011;13384;24.794;110.498;2023-03-01T14:58:15;67.88;;;38.10;;
25467;SDS011;13384;24.794;110.498;2023-03-01T15:00:55;64.18;;;36.08;;
25467;SDS011;13384;24.794;110.498;2023-03-01T15:03:36;63.65;;;35.08;;
25467;SDS011;13384;24.794;110.498;2023-03-01T15:06:38;61.33;;;35.40;;
25467;SDS011;13384;24.794;110.498;2023-03-01T15:09:14;70.72;;;38.38;;
25467;SDS011;13384;24.794;110.498;2023-03-01T15:11:49;67.68;;;38.08;;
25467;SDS011;13384;24.794;110.498;2023-03-01T15:14:27;57.97;;;31.63;;
25467;SDS011;13384;24.794;110.498;2023-03-01T15:17:30;69.63;;;38.17;;
25467;SDS011;13384;24.794;110.498;2023-03-01T15:20:06;64.53;;;37.15;;
25467;SDS011;13384;24.794;110.498;2023-03-01T15:22:52;62.65;;;36.97;;
25467;SDS011;13384;24.794;110.498;2023-03-01T15:25:27;67.57;;;39.63;;
25467;SDS011;13384;24.794;110.498;2023-03-01T15:28:01;71.05;;;37.67;;
25467;SDS011;13384;24.794;110.498;2023-03-01T15:30:33;69.50;;;38.22;;
25467;SDS011;13384;24.794;110.498;2023-03-01T15:33:31;68.10;;;38.65;;
25467;SDS011;13384;24.794;110.498;2023-03-01T15:39:00;58.72;;;33.78;;
25467;SDS011;13384;24.794;110.498;2023-03-01T15:44:28;68.72;;;38.75;;
25467;SDS011;13384;24.794;110.498;2023-03-01T15:50:01;71.13;;;38.70;;
25467;SDS011;13384;24.794;110.498;2023-03-01T15:52:43;66.03;;;37.20;;
25467;SDS011;13384;24.794;110.498;2023-03-01T15:55:18;67.22;;;38.25;;
25467;SDS011;13384;24.794;110.498;2023-03-01T15:58:01;70.30;;;38.80;;
25467;SDS011;13384;24.794;110.498;2023-03-01T16:00:41;56.67;;;32.92;;
25467;SDS011;13384;24.794;110.498;2023-03-01T16:03:27;67.45;;;37.40;;
25467;SDS011;13384;24.794;110.498;2023-03-01T16:06:19;66.32;;;36.75;;
25467;SDS011;13384;24.794;110.498;2023-03-01T16:09:12;62.30;;;35.75;;
25467;SDS011;13384;24.794;110.498;2023-03-01T16:11:45;72.85;;;39.40;;
25467;SDS011;13384;24.794;110.498;2023-03-01T16:14:23;69.97;;;39.42;;
25467;SDS011;13384;24.794;110.498;2023-03-01T16:17:01;68.20;;;38.83;;
25467;SDS011;13384;24.794;110.498;2023-03-01T16:19:36;70.93;;;39.53;;
25467;SDS011;13384;24.794;110.498;2023-03-01T16:22:30;70.07;;;39.45;;
25467;SDS011;13384;24.794;110.498;2023-03-01T16:25:06;65.55;;;38.20;;
25467;SDS011;13384;24.794;110.498;2023-03-01T16:28:00;72.75;;;38.70;;
25467;SDS011;13384;24.794;110.498;2023-03-01T16:30:39;69.35;;;38.28;;
25467;SDS011;13384;24.794;110.498;2023-03-01T16:33:23;66.40;;;38.58;;
25467;SDS011;13384;24.794;110.498;2023-03-01T16:36:18;70.70;;;38.05;;
25467;SDS011;13384;24.794;110.498;2023-03-01T16:38:54;72.35;;;39.88;;
25467;SDS011;13384;24.794;110.498;2023-03-01T16:41:33;72.45;;;39.72;;
25467;SDS011;13384;24.794;110.498;2023-03-01T16:44:06;72.88;;;41.83;;
25467;SDS011;13384;24.794;110.498;2023-03-01T16:46:38;68.47;;;39.30;;
25467;SDS011;13384;24.794;110.498;2023-03-01T16:49:43;73.05;;;39.83;;
25467;SDS011;13384;24.794;110.498;2023-03-01T16:52:39;69.10;;;39.50;;
25467;SDS011;13384;24.794;110.498;2023-03-01T16:55:12;72.95;;;40.10;;
25467;SDS011;13384;24.794;110.498;2023-03-01T16:57:44;68.22;;;39.20;;
25467;SDS011;13384;24.794;110.498;2023-03-01T17:00:18;74.68;;;39.33;;
25467;SDS011;13384;24.794;110.498;2023-03-01T17:02:51;70.05;;;40.00;;
25467;SDS011;13384;24.794;110.498;2023-03-01T17:05:27;70.97;;;39.75;;
25467;SDS011;13384;24.794;110.498;2023-03-01T17:08:08;75.93;;;39.88;;
25467;SDS011;13384;24.794;110.498;2023-03-01T17:10:41;72.88;;;39.80;;
25467;SDS011;13384;24.794;110.498;2023-03-01T17:13:15;70.38;;;38.95;;
25467;SDS011;13384;24.794;110.498;2023-03-01T17:15:48;70.22;;;39.33;;
25467;SDS011;13384;24.794;110.498;2023-03-01T17:18:40;74.50;;;40.08;;
25467;SDS011;13384;24.794;110.498;2023-03-01T17:21:12;71.78;;;39.88;;
25467;SDS011;13384;24.794;110.498;2023-03-01T17:23:43;75.18;;;40.13;;
25467;SDS011;13384;24.794;110.498;2023-03-01T17:26:16;65.13;;;36.50;;
25467;SDS011;13384;24.794;110.498;2023-03-01T17:29:07;70.55;;;39.38;;
25467;SDS011;13384;24.794;110.498;2023-03-01T17:31:38;68.82;;;39.25;;
25467;SDS011;13384;24.794;110.498;2023-03-01T17:34:09;70.35;;;40.20;;
25467;SDS011;13384;24.794;110.498;2023-03-01T17:36:40;74.43;;;41.05;;
25467;SDS011;13384;24.794;110.498;2023-03-01T17:39:13;72.15;;;38.53;;
25467;SDS011;13384;24.794;110.498;2023-03-01T17:41:45;73.53;;;39.70;;
25467;SDS011;13384;24.794;110.498;2023-03-01T17:44:17;76.82;;;41.58;;
25467;SDS011;13384;24.794;110.498;2023-03-01T17:46:48;70.72;;;38.92;;
25467;SDS011;13384;24.794;110.498;2023-03-01T17:49:19;69.65;;;38.60;;
25467;SDS011;13384;24.794;110.498;2023-03-01T17:51:50;74.25;;;40.47;;
25467;SDS011;13384;24.794;110.498;2023-03-01T17:54:22;76.97;;;39.90;;
25467;SDS011;13384;24.794;110.498;2023-03-01T17:56:53;70.22;;;38.75;;
25467;SDS011;13384;24.794;110.498;2023-03-01T17:59:27;70.32;;;39.17;;
25467;SDS011;13384;24.794;110.498;2023-03-01T18:01:59;61.70;;;36.40;;
25467;SDS011;13384;24.794;110.498;2023-03-01T18:04:31;76.93;;;41.00;;
25467;SDS011;13384;24.794;110.498;2023-03-01T18:07:02;77.30;;;40.50;;
25467;SDS011;13384;24.794;110.498;2023-03-01T18:09:33;72.15;;;40.08;;
25467;SDS011;13384;24.794;110.498;2023-03-01T18:12:04;73.47;;;40.45;;
25467;SDS011;13384;24.794;110.498;2023-03-01T18:14:36;76.07;;;41.10;;
25467;SDS011;13384;24.794;110.498;2023-03-01T18:17:07;76.43;;;41.17;;
25467;SDS011;13384;24.794;110.498;2023-03-01T18:19:40;75.78;;;41.42;;
25467;SDS011;13384;24.794;110.498;2023-03-01T18:22:11;67.63;;;36.08;;
25467;SDS011;13384;24.794;110.498;2023-03-01T18:24:43;74.80;;;39.78;;
25467;SDS011;13384;24.794;110.498;2023-03-01T18:27:15;72.18;;;39.83;;
25467;SDS011;13384;24.794;110.498;2023-03-01T18:29:46;81.68;;;41.42;;
25467;SDS011;13384;24.794;110.498;2023-03-01T18:32:17;69.60;;;38.50;;
25467;SDS011;13384;24.794;110.498;2023-03-01T18:34:49;71.10;;;39.45;;
25467;SDS011;13384;24.794;110.498;2023-03-01T18:37:20;75.05;;;41.15;;
25467;SDS011;13384;24.794;110.498;2023-03-01T18:39:51;74.70;;;40.50;;
25467;SDS011;13384;24.794;110.498;2023-03-01T18:42:23;68.72;;;37.97;;
25467;SDS011;13384;24.794;110.498;2023-03-01T18:44:54;73.00;;;40.85;;
25467;SDS011;13384;24.794;110.498;2023-03-01T18:47:25;58.95;;;34.38;;
25467;SDS011;13384;24.794;110.498;2023-03-01T18:49:56;70.95;;;40.42;;
25467;SDS011;13384;24.794;110.498;2023-03-01T18:52:27;69.70;;;37.47;;
25467;SDS011;13384;24.794;110.498;2023-03-01T18:54:59;78.15;;;41.55;;